sensor_id;sensor_type;location;lat;lon;timestamp;temperature;humidity
9373;DHT22;10838;52.350;9.790;2022-09-28T00:02:22;9.40;96.60
9373;DHT22;10838;52.350;9.790;2022-09-28T00:04:51;9.30;96.60
9373;DHT22;10838;52.350;9.790;2022-09-28T00:07:17;9.30;96.60
9373;DHT22;10838;52.350;9.790;2022-09-28T00:09:44;9.30;96.60
9373;DHT22;10838;52.350;9.790;2022-09-28T00:12:10;9.20;96.60
9373;DHT22;10838;52.350;9.790;2022-09-28T00:14:37;9.20;96.60
9373;DHT22;10838;52.350;9.790;2022-09-28T00:17:05;9.20;96.60
9373;DHT22;10838;52.350;9.790;2022-09-28T00:19:32;9.10;96.50
9373;DHT22;10838;52.350;9.790;2022-09-28T00:22:00;9.10;96.50
9373;DHT22;10838;52.350;9.790;2022-09-28T00:24:27;9.10;96.50
9373;DHT22;10838;52.350;9.790;2022-09-28T00:26:55;9.00;96.50
9373;DHT22;10838;52.350;9.790;2022-09-28T00:29:23;9.00;96.50
9373;DHT22;10838;52.350;9.790;2022-09-28T00:31:51;9.00;96.50
9373;DHT22;10838;52.350;9.790;2022-09-28T00:34:21;8.90;96.50
9373;DHT22;10838;52.350;9.790;2022-09-28T00:36:48;8.90;96.50
9373;DHT22;10838;52.350;9.790;2022-09-28T00:39:16;8.90;96.50
9373;DHT22;10838;52.350;9.790;2022-09-28T00:41:43;8.80;96.40
9373;DHT22;10838;52.350;9.790;2022-09-28T00:44:33;8.80;96.40
9373;DHT22;10838;52.350;9.790;2022-09-28T00:47:03;8.70;96.40
9373;DHT22;10838;52.350;9.790;2022-09-28T00:49:38;8.70;96.40
9373;DHT22;10838;52.350;9.790;2022-09-28T00:52:07;8.60;96.30
9373;DHT22;10838;52.350;9.790;2022-09-28T00:54:37;8.60;96.30
9373;DHT22;10838;52.350;9.790;2022-09-28T00:57:04;8.50;96.30
9373;DHT22;10838;52.350;9.790;2022-09-28T00:59:32;8.50;96.30
9373;DHT22;10838;52.350;9.790;2022-09-28T01:01:59;8.50;96.30
9373;DHT22;10838;52.350;9.790;2022-09-28T01:04:26;8.50;96.30
9373;DHT22;10838;52.350;9.790;2022-09-28T01:06:54;8.50;96.30
9373;DHT22;10838;52.350;9.790;2022-09-28T01:09:21;8.50;96.30
9373;DHT22;10838;52.350;9.790;2022-09-28T01:11:51;8.50;96.30
9373;DHT22;10838;52.350;9.790;2022-09-28T01:14:19;8.50;96.30
9373;DHT22;10838;52.350;9.790;2022-09-28T01:16:56;8.40;96.40
9373;DHT22;10838;52.350;9.790;2022-09-28T01:22:29;8.40;96.30
9373;DHT22;10838;52.350;9.790;2022-09-28T01:25:06;8.50;96.40
9373;DHT22;10838;52.350;9.790;2022-09-28T01:27:38;8.40;96.40
9373;DHT22;10838;52.350;9.790;2022-09-28T01:30:08;8.50;96.40
9373;DHT22;10838;52.350;9.790;2022-09-28T01:32:41;8.50;96.40
9373;DHT22;10838;52.350;9.790;2022-09-28T01:35:15;8.50;96.40
9373;DHT22;10838;52.350;9.790;2022-09-28T01:37:47;8.50;96.40
9373;DHT22;10838;52.350;9.790;2022-09-28T01:40:16;8.50;96.50
9373;DHT22;10838;52.350;9.790;2022-09-28T01:42:47;8.50;96.50
9373;DHT22;10838;52.350;9.790;2022-09-28T01:45:19;8.60;96.50
9373;DHT22;10838;52.350;9.790;2022-09-28T01:47:48;8.60;96.50
9373;DHT22;10838;52.350;9.790;2022-09-28T01:50:19;8.60;96.50
9373;DHT22;10838;52.350;9.790;2022-09-28T01:52:50;8.60;96.60
9373;DHT22;10838;52.350;9.790;2022-09-28T01:55:24;8.70;96.60
9373;DHT22;10838;52.350;9.790;2022-09-28T01:57:58;8.70;96.60
9373;DHT22;10838;52.350;9.790;2022-09-28T02:00:26;8.70;96.60
9373;DHT22;10838;52.350;9.790;2022-09-28T02:02:56;8.70;96.60
9373;DHT22;10838;52.350;9.790;2022-09-28T02:05:28;8.70;96.60
9373;DHT22;10838;52.350;9.790;2022-09-28T02:08:01;8.70;96.70
9373;DHT22;10838;52.350;9.790;2022-09-28T02:10:32;8.70;96.70
9373;DHT22;10838;52.350;9.790;2022-09-28T02:13:05;8.70;96.70
9373;DHT22;10838;52.350;9.790;2022-09-28T02:15:41;8.80;96.70
9373;DHT22;10838;52.350;9.790;2022-09-28T02:18:09;8.80;96.70
9373;DHT22;10838;52.350;9.790;2022-09-28T02:20:37;8.80;96.80
9373;DHT22;10838;52.350;9.790;2022-09-28T02:23:07;8.80;96.80
9373;DHT22;10838;52.350;9.790;2022-09-28T02:25:39;8.80;96.80
9373;DHT22;10838;52.350;9.790;2022-09-28T02:28:09;8.90;96.80
9373;DHT22;10838;52.350;9.790;2022-09-28T02:30:40;8.90;96.80
9373;DHT22;10838;52.350;9.790;2022-09-28T02:33:11;8.90;96.80
9373;DHT22;10838;52.350;9.790;2022-09-28T02:35:39;8.90;96.80
9373;DHT22;10838;52.350;9.790;2022-09-28T02:38:06;8.90;96.80
9373;DHT22;10838;52.350;9.790;2022-09-28T02:40:34;9.00;96.90
9373;DHT22;10838;52.350;9.790;2022-09-28T02:43:10;9.00;96.90
9373;DHT22;10838;52.350;9.790;2022-09-28T02:45:46;9.00;96.90
9373;DHT22;10838;52.350;9.790;2022-09-28T02:48:24;9.10;96.90
9373;DHT22;10838;52.350;9.790;2022-09-28T02:51:01;9.00;96.90
9373;DHT22;10838;52.350;9.790;2022-09-28T02:54:04;9.00;96.90
9373;DHT22;10838;52.350;9.790;2022-09-28T02:56:51;9.10;96.90
9373;DHT22;10838;52.350;9.790;2022-09-28T02:59:30;9.10;96.90
9373;DHT22;10838;52.350;9.790;2022-09-28T03:02:03;9.10;97.00
9373;DHT22;10838;52.350;9.790;2022-09-28T03:04:37;9.10;96.90
9373;DHT22;10838;52.350;9.790;2022-09-28T03:07:09;9.10;96.90
9373;DHT22;10838;52.350;9.790;2022-09-28T03:09:46;9.10;97.00
9373;DHT22;10838;52.350;9.790;2022-09-28T03:12:17;9.20;97.00
9373;DHT22;10838;52.350;9.790;2022-09-28T03:14:46;9.20;97.00
9373;DHT22;10838;52.350;9.790;2022-09-28T03:17:12;9.20;97.00
9373;DHT22;10838;52.350;9.790;2022-09-28T03:19:39;9.20;97.00
9373;DHT22;10838;52.350;9.790;2022-09-28T03:22:05;9.20;97.00
9373;DHT22;10838;52.350;9.790;2022-09-28T03:24:32;9.20;97.00
9373;DHT22;10838;52.350;9.790;2022-09-28T03:26:58;9.30;97.00
9373;DHT22;10838;52.350;9.790;2022-09-28T03:29:25;9.20;97.00
9373;DHT22;10838;52.350;9.790;2022-09-28T03:31:56;9.20;97.00
9373;DHT22;10838;52.350;9.790;2022-09-28T03:34:23;9.20;97.00
9373;DHT22;10838;52.350;9.790;2022-09-28T03:36:50;9.30;97.10
9373;DHT22;10838;52.350;9.790;2022-09-28T03:39:16;9.20;97.00
9373;DHT22;10838;52.350;9.790;2022-09-28T03:41:43;9.30;97.10
9373;DHT22;10838;52.350;9.790;2022-09-28T03:44:09;9.20;97.10
9373;DHT22;10838;52.350;9.790;2022-09-28T03:46:36;9.20;97.10
9373;DHT22;10838;52.350;9.790;2022-09-28T03:49:03;9.20;97.10
9373;DHT22;10838;52.350;9.790;2022-09-28T03:51:30;9.30;97.10
9373;DHT22;10838;52.350;9.790;2022-09-28T03:53:57;9.30;97.10
9373;DHT22;10838;52.350;9.790;2022-09-28T03:56:23;9.30;97.10
9373;DHT22;10838;52.350;9.790;2022-09-28T03:58:50;9.30;97.10
9373;DHT22;10838;52.350;9.790;2022-09-28T04:01:17;9.30;97.10
9373;DHT22;10838;52.350;9.790;2022-09-28T04:03:44;9.30;97.10
9373;DHT22;10838;52.350;9.790;2022-09-28T04:06:13;9.30;97.10
9373;DHT22;10838;52.350;9.790;2022-09-28T04:08:39;9.30;97.10
9373;DHT22;10838;52.350;9.790;2022-09-28T04:11:07;9.30;97.10
9373;DHT22;10838;52.350;9.790;2022-09-28T04:13:33;9.30;97.10
9373;DHT22;10838;52.350;9.790;2022-09-28T04:16:01;9.30;97.10
9373;DHT22;10838;52.350;9.790;2022-09-28T04:18:30;9.30;97.10
9373;DHT22;10838;52.350;9.790;2022-09-28T04:20:58;9.40;97.10
9373;DHT22;10838;52.350;9.790;2022-09-28T04:23:28;9.40;97.20
9373;DHT22;10838;52.350;9.790;2022-09-28T04:25:55;9.40;97.20
9373;DHT22;10838;52.350;9.790;2022-09-28T04:28:22;9.40;97.20
9373;DHT22;10838;52.350;9.790;2022-09-28T04:31:08;9.40;97.20
9373;DHT22;10838;52.350;9.790;2022-09-28T04:33:35;9.40;97.20
9373;DHT22;10838;52.350;9.790;2022-09-28T04:36:01;9.40;97.20
9373;DHT22;10838;52.350;9.790;2022-09-28T04:38:30;9.40;97.20
9373;DHT22;10838;52.350;9.790;2022-09-28T04:40:57;9.40;97.20
9373;DHT22;10838;52.350;9.790;2022-09-28T04:43:23;9.40;97.20
9373;DHT22;10838;52.350;9.790;2022-09-28T04:45:50;9.50;97.20
9373;DHT22;10838;52.350;9.790;2022-09-28T04:48:16;9.50;97.20
9373;DHT22;10838;52.350;9.790;2022-09-28T04:50:43;9.50;97.20
9373;DHT22;10838;52.350;9.790;2022-09-28T04:53:09;9.50;97.20
9373;DHT22;10838;52.350;9.790;2022-09-28T04:55:37;9.50;97.20
9373;DHT22;10838;52.350;9.790;2022-09-28T04:58:04;9.50;97.20
9373;DHT22;10838;52.350;9.790;2022-09-28T05:00:30;9.50;97.20
9373;DHT22;10838;52.350;9.790;2022-09-28T05:02:59;9.50;97.20
9373;DHT22;10838;52.350;9.790;2022-09-28T05:05:25;9.50;97.20
9373;DHT22;10838;52.350;9.790;2022-09-28T05:07:52;9.50;97.20
9373;DHT22;10838;52.350;9.790;2022-09-28T05:10:22;9.50;97.20
9373;DHT22;10838;52.350;9.790;2022-09-28T05:12:49;9.50;97.20
9373;DHT22;10838;52.350;9.790;2022-09-28T05:15:16;9.60;97.30
9373;DHT22;10838;52.350;9.790;2022-09-28T05:17:43;9.50;97.20
9373;DHT22;10838;52.350;9.790;2022-09-28T05:20:09;9.50;97.30
9373;DHT22;10838;52.350;9.790;2022-09-28T05:22:36;9.50;97.30
9373;DHT22;10838;52.350;9.790;2022-09-28T05:25:03;9.50;97.30
9373;DHT22;10838;52.350;9.790;2022-09-28T05:27:29;9.50;97.30
9373;DHT22;10838;52.350;9.790;2022-09-28T05:29:57;9.60;97.30
9373;DHT22;10838;52.350;9.790;2022-09-28T05:32:24;9.50;97.30
9373;DHT22;10838;52.350;9.790;2022-09-28T05:34:50;9.60;97.30
9373;DHT22;10838;52.350;9.790;2022-09-28T05:37:17;9.60;97.30
9373;DHT22;10838;52.350;9.790;2022-09-28T05:39:43;9.60;97.30
9373;DHT22;10838;52.350;9.790;2022-09-28T05:42:10;9.60;97.30
9373;DHT22;10838;52.350;9.790;2022-09-28T05:44:36;9.60;97.30
9373;DHT22;10838;52.350;9.790;2022-09-28T05:47:04;9.60;97.30
9373;DHT22;10838;52.350;9.790;2022-09-28T05:49:31;9.60;97.30
9373;DHT22;10838;52.350;9.790;2022-09-28T05:51:57;9.60;97.30
9373;DHT22;10838;52.350;9.790;2022-09-28T05:54:24;9.60;97.30
9373;DHT22;10838;52.350;9.790;2022-09-28T05:56:51;9.50;97.30
9373;DHT22;10838;52.350;9.790;2022-09-28T05:59:17;9.60;97.30
9373;DHT22;10838;52.350;9.790;2022-09-28T06:01:44;9.60;97.30
9373;DHT22;10838;52.350;9.790;2022-09-28T06:04:12;9.60;97.30
9373;DHT22;10838;52.350;9.790;2022-09-28T06:06:39;9.60;97.30
9373;DHT22;10838;52.350;9.790;2022-09-28T06:09:05;9.60;97.40
9373;DHT22;10838;52.350;9.790;2022-09-28T06:11:32;9.60;97.40
9373;DHT22;10838;52.350;9.790;2022-09-28T06:13:58;9.60;97.40
9373;DHT22;10838;52.350;9.790;2022-09-28T06:16:25;9.60;97.40
9373;DHT22;10838;52.350;9.790;2022-09-28T06:18:52;9.60;97.40
9373;DHT22;10838;52.350;9.790;2022-09-28T06:21:19;9.60;97.40
9373;DHT22;10838;52.350;9.790;2022-09-28T06:23:46;9.70;97.40
9373;DHT22;10838;52.350;9.790;2022-09-28T06:26:12;9.70;97.40
9373;DHT22;10838;52.350;9.790;2022-09-28T06:28:39;9.70;97.40
9373;DHT22;10838;52.350;9.790;2022-09-28T06:31:06;9.70;97.40
9373;DHT22;10838;52.350;9.790;2022-09-28T06:33:32;9.70;97.40
9373;DHT22;10838;52.350;9.790;2022-09-28T06:36:00;9.70;97.40
9373;DHT22;10838;52.350;9.790;2022-09-28T06:38:28;9.80;97.50
9373;DHT22;10838;52.350;9.790;2022-09-28T06:40:55;9.80;97.50
9373;DHT22;10838;52.350;9.790;2022-09-28T06:43:23;9.80;97.50
9373;DHT22;10838;52.350;9.790;2022-09-28T06:45:51;9.80;97.50
9373;DHT22;10838;52.350;9.790;2022-09-28T06:48:18;9.80;97.50
9373;DHT22;10838;52.350;9.790;2022-09-28T06:50:45;9.80;97.50
9373;DHT22;10838;52.350;9.790;2022-09-28T06:53:13;9.80;97.50
9373;DHT22;10838;52.350;9.790;2022-09-28T06:55:42;9.80;97.50
9373;DHT22;10838;52.350;9.790;2022-09-28T06:58:11;9.80;97.50
9373;DHT22;10838;52.350;9.790;2022-09-28T07:00:39;9.80;97.50
9373;DHT22;10838;52.350;9.790;2022-09-28T07:03:07;9.80;97.50
9373;DHT22;10838;52.350;9.790;2022-09-28T07:05:35;9.90;97.50
9373;DHT22;10838;52.350;9.790;2022-09-28T07:08:03;9.90;97.50
9373;DHT22;10838;52.350;9.790;2022-09-28T07:10:30;9.90;97.50
9373;DHT22;10838;52.350;9.790;2022-09-28T07:13:00;10.00;97.40
9373;DHT22;10838;52.350;9.790;2022-09-28T07:15:28;10.00;97.40
9373;DHT22;10838;52.350;9.790;2022-09-28T07:17:56;10.00;97.40
9373;DHT22;10838;52.350;9.790;2022-09-28T07:20:23;10.00;97.40
9373;DHT22;10838;52.350;9.790;2022-09-28T07:22:52;10.00;97.40
9373;DHT22;10838;52.350;9.790;2022-09-28T07:25:18;10.10;97.40
9373;DHT22;10838;52.350;9.790;2022-09-28T07:27:45;10.10;97.40
9373;DHT22;10838;52.350;9.790;2022-09-28T07:30:14;10.10;97.40
9373;DHT22;10838;52.350;9.790;2022-09-28T07:32:40;10.20;97.40
9373;DHT22;10838;52.350;9.790;2022-09-28T07:35:08;10.20;97.40
9373;DHT22;10838;52.350;9.790;2022-09-28T07:37:35;10.20;97.40
9373;DHT22;10838;52.350;9.790;2022-09-28T07:40:03;10.20;97.40
9373;DHT22;10838;52.350;9.790;2022-09-28T07:42:47;10.20;97.40
9373;DHT22;10838;52.350;9.790;2022-09-28T07:45:16;10.20;97.40
9373;DHT22;10838;52.350;9.790;2022-09-28T07:47:45;10.20;97.40
9373;DHT22;10838;52.350;9.790;2022-09-28T07:50:11;10.20;97.40
9373;DHT22;10838;52.350;9.790;2022-09-28T07:52:38;10.20;97.40
9373;DHT22;10838;52.350;9.790;2022-09-28T07:55:06;10.20;97.40
9373;DHT22;10838;52.350;9.790;2022-09-28T07:57:33;10.10;97.40
9373;DHT22;10838;52.350;9.790;2022-09-28T08:00:00;10.10;97.40
9373;DHT22;10838;52.350;9.790;2022-09-28T08:02:30;10.10;97.40
9373;DHT22;10838;52.350;9.790;2022-09-28T08:04:59;10.00;97.30
9373;DHT22;10838;52.350;9.790;2022-09-28T08:07:25;10.00;97.30
9373;DHT22;10838;52.350;9.790;2022-09-28T08:09:52;10.00;97.30
9373;DHT22;10838;52.350;9.790;2022-09-28T08:12:19;9.90;97.40
9373;DHT22;10838;52.350;9.790;2022-09-28T08:14:46;9.90;97.40
9373;DHT22;10838;52.350;9.790;2022-09-28T08:17:13;9.90;97.40
9373;DHT22;10838;52.350;9.790;2022-09-28T08:19:42;9.90;97.40
9373;DHT22;10838;52.350;9.790;2022-09-28T08:22:26;9.90;97.40
9373;DHT22;10838;52.350;9.790;2022-09-28T08:24:56;9.90;97.40
9373;DHT22;10838;52.350;9.790;2022-09-28T08:27:23;9.90;97.40
9373;DHT22;10838;52.350;9.790;2022-09-28T08:29:49;9.80;97.30
9373;DHT22;10838;52.350;9.790;2022-09-28T08:32:16;9.80;97.30
9373;DHT22;10838;52.350;9.790;2022-09-28T08:34:45;9.80;97.30
9373;DHT22;10838;52.350;9.790;2022-09-28T08:37:12;9.80;97.30
9373;DHT22;10838;52.350;9.790;2022-09-28T08:39:38;9.80;97.30
9373;DHT22;10838;52.350;9.790;2022-09-28T08:42:15;9.80;97.30
9373;DHT22;10838;52.350;9.790;2022-09-28T08:44:49;9.90;97.40
9373;DHT22;10838;52.350;9.790;2022-09-28T08:47:23;9.90;97.40
9373;DHT22;10838;52.350;9.790;2022-09-28T08:50:15;9.90;97.40
9373;DHT22;10838;52.350;9.790;2022-09-28T08:52:45;10.10;97.30
9373;DHT22;10838;52.350;9.790;2022-09-28T08:55:17;10.00;97.20
9373;DHT22;10838;52.350;9.790;2022-09-28T08:57:51;10.00;97.30
9373;DHT22;10838;52.350;9.790;2022-09-28T09:00:20;10.10;97.30
9373;DHT22;10838;52.350;9.790;2022-09-28T09:02:48;10.10;97.30
9373;DHT22;10838;52.350;9.790;2022-09-28T09:05:18;10.10;97.30
9373;DHT22;10838;52.350;9.790;2022-09-28T09:07:57;10.20;97.30
9373;DHT22;10838;52.350;9.790;2022-09-28T09:10:46;10.20;97.30
9373;DHT22;10838;52.350;9.790;2022-09-28T09:13:39;10.20;97.30
9373;DHT22;10838;52.350;9.790;2022-09-28T09:16:15;10.30;97.30
9373;DHT22;10838;52.350;9.790;2022-09-28T09:18:50;10.30;97.30
9373;DHT22;10838;52.350;9.790;2022-09-28T09:21:32;10.30;97.30
9373;DHT22;10838;52.350;9.790;2022-09-28T09:24:14;10.30;97.30
9373;DHT22;10838;52.350;9.790;2022-09-28T09:26:43;10.40;97.30
9373;DHT22;10838;52.350;9.790;2022-09-28T09:29:19;10.50;97.30
9373;DHT22;10838;52.350;9.790;2022-09-28T09:32:12;10.50;97.30
9373;DHT22;10838;52.350;9.790;2022-09-28T09:34:52;10.60;97.40
9373;DHT22;10838;52.350;9.790;2022-09-28T09:37:34;10.70;97.40
9373;DHT22;10838;52.350;9.790;2022-09-28T09:40:16;10.80;97.40
9373;DHT22;10838;52.350;9.790;2022-09-28T09:42:59;10.90;97.40
9373;DHT22;10838;52.350;9.790;2022-09-28T09:45:42;10.90;97.40
9373;DHT22;10838;52.350;9.790;2022-09-28T09:48:18;11.00;97.40
9373;DHT22;10838;52.350;9.790;2022-09-28T09:50:49;11.00;97.30
9373;DHT22;10838;52.350;9.790;2022-09-28T09:53:23;11.10;97.30
9373;DHT22;10838;52.350;9.790;2022-09-28T09:55:54;11.10;97.30
9373;DHT22;10838;52.350;9.790;2022-09-28T09:58:27;11.10;97.30
9373;DHT22;10838;52.350;9.790;2022-09-28T10:00:58;11.10;97.30
9373;DHT22;10838;52.350;9.790;2022-09-28T10:03:28;11.10;97.30
9373;DHT22;10838;52.350;9.790;2022-09-28T10:05:59;11.10;97.20
9373;DHT22;10838;52.350;9.790;2022-09-28T10:08:32;11.10;97.20
9373;DHT22;10838;52.350;9.790;2022-09-28T10:11:06;11.10;97.20
9373;DHT22;10838;52.350;9.790;2022-09-28T10:13:33;11.20;97.20
9373;DHT22;10838;52.350;9.790;2022-09-28T10:16:00;11.20;97.20
9373;DHT22;10838;52.350;9.790;2022-09-28T10:18:27;11.20;97.20
9373;DHT22;10838;52.350;9.790;2022-09-28T10:20:54;11.20;97.10
9373;DHT22;10838;52.350;9.790;2022-09-28T10:23:23;11.10;97.10
9373;DHT22;10838;52.350;9.790;2022-09-28T10:25:53;11.10;97.10
9373;DHT22;10838;52.350;9.790;2022-09-28T10:28:28;11.10;97.00
9373;DHT22;10838;52.350;9.790;2022-09-28T10:30:55;11.10;97.00
9373;DHT22;10838;52.350;9.790;2022-09-28T10:33:30;11.10;97.00
9373;DHT22;10838;52.350;9.790;2022-09-28T10:35:58;11.10;96.90
9373;DHT22;10838;52.350;9.790;2022-09-28T10:38:25;11.00;96.90
9373;DHT22;10838;52.350;9.790;2022-09-28T10:40:57;11.00;96.90
9373;DHT22;10838;52.350;9.790;2022-09-28T10:43:26;11.00;96.90
9373;DHT22;10838;52.350;9.790;2022-09-28T10:46:03;11.00;96.80
9373;DHT22;10838;52.350;9.790;2022-09-28T10:48:44;11.00;96.80
9373;DHT22;10838;52.350;9.790;2022-09-28T10:51:12;10.90;96.80
9373;DHT22;10838;52.350;9.790;2022-09-28T10:53:39;10.90;96.80
9373;DHT22;10838;52.350;9.790;2022-09-28T10:56:18;10.90;96.80
9373;DHT22;10838;52.350;9.790;2022-09-28T10:58:45;10.90;96.80
9373;DHT22;10838;52.350;9.790;2022-09-28T11:01:15;10.90;96.80
9373;DHT22;10838;52.350;9.790;2022-09-28T11:03:51;11.00;96.80
9373;DHT22;10838;52.350;9.790;2022-09-28T11:06:23;11.00;96.80
9373;DHT22;10838;52.350;9.790;2022-09-28T11:08:52;11.00;96.80
9373;DHT22;10838;52.350;9.790;2022-09-28T11:11:21;11.00;96.80
9373;DHT22;10838;52.350;9.790;2022-09-28T11:13:50;11.00;96.80
9373;DHT22;10838;52.350;9.790;2022-09-28T11:16:23;11.00;96.80
9373;DHT22;10838;52.350;9.790;2022-09-28T11:18:50;11.10;96.80
9373;DHT22;10838;52.350;9.790;2022-09-28T11:21:20;11.10;96.80
9373;DHT22;10838;52.350;9.790;2022-09-28T11:24:02;11.10;96.80
9373;DHT22;10838;52.350;9.790;2022-09-28T11:26:38;11.10;96.80
9373;DHT22;10838;52.350;9.790;2022-09-28T11:29:20;11.10;96.80
9373;DHT22;10838;52.350;9.790;2022-09-28T11:31:48;11.10;96.80
9373;DHT22;10838;52.350;9.790;2022-09-28T11:34:20;11.20;96.80
9373;DHT22;10838;52.350;9.790;2022-09-28T11:37:03;11.20;96.80
9373;DHT22;10838;52.350;9.790;2022-09-28T11:39:39;11.20;96.80
9373;DHT22;10838;52.350;9.790;2022-09-28T11:42:20;11.20;96.80
9373;DHT22;10838;52.350;9.790;2022-09-28T11:44:52;11.20;96.80
9373;DHT22;10838;52.350;9.790;2022-09-28T11:47:44;11.20;96.80
9373;DHT22;10838;52.350;9.790;2022-09-28T11:50:17;11.30;96.80
9373;DHT22;10838;52.350;9.790;2022-09-28T11:52:49;11.30;96.80
9373;DHT22;10838;52.350;9.790;2022-09-28T11:55:23;11.30;96.80
9373;DHT22;10838;52.350;9.790;2022-09-28T11:57:58;11.40;96.80
9373;DHT22;10838;52.350;9.790;2022-09-28T12:00:26;11.40;96.70
9373;DHT22;10838;52.350;9.790;2022-09-28T12:02:58;11.40;96.70
9373;DHT22;10838;52.350;9.790;2022-09-28T12:05:28;11.40;96.70
9373;DHT22;10838;52.350;9.790;2022-09-28T12:07:59;11.50;96.70
9373;DHT22;10838;52.350;9.790;2022-09-28T12:10:33;11.50;96.70
9373;DHT22;10838;52.350;9.790;2022-09-28T12:13:04;11.60;96.70
9373;DHT22;10838;52.350;9.790;2022-09-28T12:15:46;11.60;96.70
9373;DHT22;10838;52.350;9.790;2022-09-28T12:18:18;11.60;96.60
9373;DHT22;10838;52.350;9.790;2022-09-28T12:20:52;11.60;96.60
9373;DHT22;10838;52.350;9.790;2022-09-28T12:23:24;11.60;96.60
9373;DHT22;10838;52.350;9.790;2022-09-28T12:25:57;11.60;96.60
9373;DHT22;10838;52.350;9.790;2022-09-28T12:28:30;11.70;96.60
9373;DHT22;10838;52.350;9.790;2022-09-28T12:31:11;11.60;96.50
9373;DHT22;10838;52.350;9.790;2022-09-28T12:33:38;11.60;96.40
9373;DHT22;10838;52.350;9.790;2022-09-28T12:36:16;11.60;96.40
9373;DHT22;10838;52.350;9.790;2022-09-28T12:38:59;11.70;96.40
9373;DHT22;10838;52.350;9.790;2022-09-28T12:41:38;11.70;96.40
9373;DHT22;10838;52.350;9.790;2022-09-28T12:44:25;11.70;96.40
9373;DHT22;10838;52.350;9.790;2022-09-28T12:47:27;11.70;96.40
9373;DHT22;10838;52.350;9.790;2022-09-28T12:50:06;11.70;96.30
9373;DHT22;10838;52.350;9.790;2022-09-28T12:52:41;11.80;96.30
9373;DHT22;10838;52.350;9.790;2022-09-28T12:55:21;11.80;96.30
9373;DHT22;10838;52.350;9.790;2022-09-28T12:58:05;11.90;96.30
9373;DHT22;10838;52.350;9.790;2022-09-28T13:00:47;11.90;96.20
9373;DHT22;10838;52.350;9.790;2022-09-28T13:03:31;11.90;96.20
9373;DHT22;10838;52.350;9.790;2022-09-28T13:06:22;11.90;96.20
9373;DHT22;10838;52.350;9.790;2022-09-28T13:09:02;11.90;96.10
9373;DHT22;10838;52.350;9.790;2022-09-28T13:11:34;11.90;96.10
9373;DHT22;10838;52.350;9.790;2022-09-28T13:14:21;11.90;96.10
9373;DHT22;10838;52.350;9.790;2022-09-28T13:16:57;11.90;96.00
9373;DHT22;10838;52.350;9.790;2022-09-28T13:19:30;12.00;96.00
9373;DHT22;10838;52.350;9.790;2022-09-28T13:22:09;12.00;96.00
9373;DHT22;10838;52.350;9.790;2022-09-28T13:24:40;12.00;96.10
9373;DHT22;10838;52.350;9.790;2022-09-28T13:27:11;12.00;96.10
9373;DHT22;10838;52.350;9.790;2022-09-28T13:29:39;12.00;96.00
9373;DHT22;10838;52.350;9.790;2022-09-28T13:32:09;12.00;96.00
9373;DHT22;10838;52.350;9.790;2022-09-28T13:34:37;12.00;96.00
9373;DHT22;10838;52.350;9.790;2022-09-28T13:37:18;12.00;96.00
9373;DHT22;10838;52.350;9.790;2022-09-28T13:39:49;12.00;96.00
9373;DHT22;10838;52.350;9.790;2022-09-28T13:45:52;12.00;96.00
9373;DHT22;10838;52.350;9.790;2022-09-28T13:48:25;12.00;96.00
9373;DHT22;10838;52.350;9.790;2022-09-28T13:51:17;12.00;96.00
9373;DHT22;10838;52.350;9.790;2022-09-28T13:54:07;12.10;96.00
9373;DHT22;10838;52.350;9.790;2022-09-28T13:56:45;12.10;96.00
9373;DHT22;10838;52.350;9.790;2022-09-28T13:59:19;12.10;96.00
9373;DHT22;10838;52.350;9.790;2022-09-28T14:01:52;12.20;96.10
9373;DHT22;10838;52.350;9.790;2022-09-28T14:04:23;12.20;96.10
9373;DHT22;10838;52.350;9.790;2022-09-28T14:06:53;12.20;96.00
9373;DHT22;10838;52.350;9.790;2022-09-28T14:09:41;12.20;96.00
9373;DHT22;10838;52.350;9.790;2022-09-28T14:12:28;12.20;96.00
9373;DHT22;10838;52.350;9.790;2022-09-28T14:14:55;12.20;96.00
9373;DHT22;10838;52.350;9.790;2022-09-28T14:17:45;12.20;96.00
9373;DHT22;10838;52.350;9.790;2022-09-28T14:20:18;12.20;95.90
9373;DHT22;10838;52.350;9.790;2022-09-28T14:22:56;12.20;95.90
9373;DHT22;10838;52.350;9.790;2022-09-28T14:25:29;12.20;95.90
9373;DHT22;10838;52.350;9.790;2022-09-28T14:28:01;12.20;95.80
9373;DHT22;10838;52.350;9.790;2022-09-28T14:30:45;12.20;95.80
9373;DHT22;10838;52.350;9.790;2022-09-28T14:33:21;12.20;95.70
9373;DHT22;10838;52.350;9.790;2022-09-28T14:35:53;12.20;95.70
9373;DHT22;10838;52.350;9.790;2022-09-28T14:38:23;12.30;95.80
9373;DHT22;10838;52.350;9.790;2022-09-28T14:41:11;12.30;95.70
9373;DHT22;10838;52.350;9.790;2022-09-28T14:44:00;12.30;95.70
9373;DHT22;10838;52.350;9.790;2022-09-28T14:46:33;12.30;95.70
9373;DHT22;10838;52.350;9.790;2022-09-28T14:49:02;12.30;95.70
9373;DHT22;10838;52.350;9.790;2022-09-28T14:51:59;12.30;95.70
9373;DHT22;10838;52.350;9.790;2022-09-28T14:54:33;12.30;95.70
9373;DHT22;10838;52.350;9.790;2022-09-28T14:57:09;12.30;95.60
9373;DHT22;10838;52.350;9.790;2022-09-28T14:59:42;12.30;95.60
9373;DHT22;10838;52.350;9.790;2022-09-28T15:02:16;12.40;95.60
9373;DHT22;10838;52.350;9.790;2022-09-28T15:04:47;12.40;95.60
9373;DHT22;10838;52.350;9.790;2022-09-28T15:07:21;12.40;95.60
9373;DHT22;10838;52.350;9.790;2022-09-28T15:09:50;12.40;95.60
9373;DHT22;10838;52.350;9.790;2022-09-28T15:12:18;12.40;95.60
9373;DHT22;10838;52.350;9.790;2022-09-28T15:14:49;12.40;95.60
9373;DHT22;10838;52.350;9.790;2022-09-28T15:17:20;12.40;95.60
9373;DHT22;10838;52.350;9.790;2022-09-28T15:19:53;12.40;95.60
9373;DHT22;10838;52.350;9.790;2022-09-28T15:22:26;12.40;95.60
9373;DHT22;10838;52.350;9.790;2022-09-28T15:24:55;12.40;95.50
9373;DHT22;10838;52.350;9.790;2022-09-28T15:27:23;12.40;95.50
9373;DHT22;10838;52.350;9.790;2022-09-28T15:29:57;12.40;95.50
9373;DHT22;10838;52.350;9.790;2022-09-28T15:32:24;12.40;95.60
9373;DHT22;10838;52.350;9.790;2022-09-28T15:34:51;12.40;95.60
9373;DHT22;10838;52.350;9.790;2022-09-28T15:37:18;12.40;95.60
9373;DHT22;10838;52.350;9.790;2022-09-28T15:39:48;12.30;95.50
9373;DHT22;10838;52.350;9.790;2022-09-28T15:42:16;12.30;95.50
9373;DHT22;10838;52.350;9.790;2022-09-28T15:44:59;12.30;95.60
9373;DHT22;10838;52.350;9.790;2022-09-28T15:47:28;12.30;95.50
9373;DHT22;10838;52.350;9.790;2022-09-28T15:49:58;12.30;95.50
9373;DHT22;10838;52.350;9.790;2022-09-28T15:52:29;12.30;95.50
9373;DHT22;10838;52.350;9.790;2022-09-28T15:55:00;12.30;95.50
9373;DHT22;10838;52.350;9.790;2022-09-28T15:57:33;12.30;95.60
9373;DHT22;10838;52.350;9.790;2022-09-28T16:00:02;12.30;95.60
9373;DHT22;10838;52.350;9.790;2022-09-28T16:02:30;12.30;95.60
9373;DHT22;10838;52.350;9.790;2022-09-28T16:04:58;12.30;95.60
9373;DHT22;10838;52.350;9.790;2022-09-28T16:07:33;12.30;95.70
9373;DHT22;10838;52.350;9.790;2022-09-28T16:10:04;12.30;95.70
9373;DHT22;10838;52.350;9.790;2022-09-28T16:12:43;12.30;95.70
9373;DHT22;10838;52.350;9.790;2022-09-28T16:15:17;12.30;95.70
9373;DHT22;10838;52.350;9.790;2022-09-28T16:17:49;12.30;95.60
9373;DHT22;10838;52.350;9.790;2022-09-28T16:20:24;12.30;95.60
9373;DHT22;10838;52.350;9.790;2022-09-28T16:22:54;12.30;95.70
9373;DHT22;10838;52.350;9.790;2022-09-28T16:25:24;12.30;95.70
9373;DHT22;10838;52.350;9.790;2022-09-28T16:27:53;12.20;95.70
9373;DHT22;10838;52.350;9.790;2022-09-28T16:30:22;12.20;95.70